首页
METAR-TAF:

METAR-TAF

机场 :

卡利亚里, 意大利

纬度: 39-15N, 经度: 009-04E, 海拔: 4米

当前天气观测

该预报发布于22分钟前的18:50 UTC
风速9节,风向
温度 16°C
湿度 77%
气压 1005 hPa
能见度10公里或以上
少量云层高于4000英尺

METAR: LIEE 141850Z 17009KT 9999 FEW040 16/12 Q1005

时间: 20:12 (19:12 UTC)

预报

该预报发布于2小时和12分钟前的17:00 UTC
预报有效从14日的 18点(UTC)到 15日的 18点(UTC)
风速12节,风向
能見度: 8000
少量云层高于1800英尺
多云层高于5000英尺
短暂存在
从 15日的 00点(UTC)到 15日的 09点(UTC)

TAF: LIEE 141700Z 1418/1518 19012KT 8000 FEW018 BKN050 TEMPO 1500/1509 RA

超过4000个机场的气象观测和天气预报(METAR&TAF报告)。

可查询的气象台以黄色和红色小点在地图上表示。

将鼠标移到小点上方,可查看气象台名称。

然后点击查看天气观测和预报。

如需切换地图:点击带黑十字的绿色按钮放大地图;点击带横线的绿色按钮缩小地图;或者点击绿色箭头查看邻近地区的地图。


METAR-TAF: